Time;durP1;ratioP1;P1;durP2;ratioP2;P2;SDS_P1;SDS_P2;PMS_P1;PMS_P2;Temp;Humidity;BMP_temperature;BMP_pressure;BME280_temperature;BME280_humidity;BME280_pressure;Samples;Min_cycle;Max_cycle;Signal;HPM_P1;HPM_P2
2022/01/25 00:26:29;;;;;;;;;84.67;61.67;;;;;4.18;71.14;102973.00;5022121;28;45295;-60
2022/01/25 00:29:11;;;;;;;;;85.00;63.67;;;;;4.15;71.20;102979.09;5021167;28;45466;-63
2022/01/25 00:31:39;;;;;;;;;88.00;65.00;;;;;4.13;70.47;102977.38;5010992;28;45237;-64
2022/01/25 00:34:06;;;;;;;;;89.33;65.00;;;;;4.12;70.48;102984.31;5012067;28;45732;-62
2022/01/25 00:36:31;;;;;;;;;88.67;65.00;;;;;4.11;70.59;102973.91;5012366;28;45487;-59
2022/01/25 00:38:58;;;;;;;;;82.00;64.67;;;;;4.09;70.99;102973.88;5013314;28;45467;-59
2022/01/25 00:41:25;;;;;;;;;91.33;66.67;;;;;4.10;70.60;102966.91;5013299;28;45411;-63
2022/01/25 00:43:52;;;;;;;;;92.33;64.67;;;;;4.08;70.80;102974.72;5013410;28;45405;-59
2022/01/25 00:46:20;;;;;;;;;88.67;64.33;;;;;4.10;70.47;102969.50;5009781;28;45545;-61
2022/01/25 00:48:50;;;;;;;;;91.33;66.00;;;;;4.10;71.13;102970.38;5009345;28;45336;-59
2022/01/25 00:54:04;;;;;;;;;85.33;63.00;;;;;4.06;71.08;102970.38;5009679;28;45490;-61
2022/01/25 00:56:35;;;;;;;;;87.00;64.67;;;;;4.02;70.89;102966.00;5011527;28;45461;-66
2022/01/25 00:59:05;;;;;;;;;81.67;61.33;;;;;3.99;70.94;102964.28;5008950;28;46162;-59
2022/01/25 01:01:31;;;;;;;;;85.67;67.67;;;;;3.96;70.66;102966.00;5018036;28;45510;-58
2022/01/25 01:03:57;;;;;;;;;72.67;56.00;;;;;3.92;70.18;102979.00;5021355;28;45490;-59
2022/01/25 01:06:23;;;;;;;;;85.67;62.67;;;;;3.89;70.87;102967.72;5021505;28;45339;-58
2022/01/25 01:08:50;;;;;;;;;85.67;63.33;;;;;3.87;70.90;102961.59;5021204;28;48182;-58
2022/01/25 01:11:23;;;;;;;;;91.67;68.00;;;;;3.86;70.29;102971.16;5021364;28;45356;-59
2022/01/25 01:43:58;;;;;;;;;77.67;58.33;;;;;3.55;71.09;102971.88;5014301;28;45286;-58
2022/01/25 01:48:53;;;;;;;;;92.33;68.67;;;;;3.55;71.45;102974.47;5020926;28;45297;-58
2022/01/25 01:51:36;;;;;;;;;84.67;64.33;;;;;3.54;70.92;102972.75;5020653;28;45998;-58
2022/01/25 01:54:06;;;;;;;;;85.00;64.67;;;;;3.51;71.25;102983.16;5020642;28;45263;-58
2022/01/25 01:56:32;;;;;;;;;84.33;63.00;;;;;3.47;71.40;102987.47;5020812;28;45347;-58
2022/01/25 01:59:00;;;;;;;;;87.33;66.67;;;;;3.45;70.92;102985.72;5020628;28;45308;-58
2022/01/25 02:01:28;;;;;;;;;85.67;65.33;;;;;3.43;71.23;102980.50;5019204;28;46006;-58
2022/01/25 02:03:55;;;;;;;;;94.67;67.33;;;;;3.40;71.18;102985.69;5020546;28;46420;-58
2022/01/25 02:06:21;;;;;;;;;85.00;61.33;;;;;3.40;71.25;102990.00;5020625;28;45360;-57
2022/01/25 02:08:47;;;;;;;;;88.67;61.00;;;;;3.35;71.37;102983.06;5020402;28;45257;-58
2022/01/25 02:11:13;;;;;;;;;91.33;63.00;;;;;3.32;71.04;102980.44;5019407;28;45325;-58
2022/01/25 02:13:41;;;;;;;;;84.00;64.33;;;;;3.27;71.10;102989.06;5020060;28;45336;-57
2022/01/25 02:16:15;;;;;;;;;87.33;67.00;;;;;3.24;71.14;102991.63;5015491;28;45431;-58
2022/01/25 02:24:08;;;;;;;;;85.33;64.33;;;;;3.28;71.25;102988.22;5011146;28;45234;-58
2022/01/25 02:26:34;;;;;;;;;97.00;68.67;;;;;3.26;71.79;102982.13;5008668;28;45213;-58
2022/01/25 02:29:00;;;;;;;;;92.33;68.33;;;;;3.27;71.40;102976.06;5010993;28;45422;-58
2022/01/25 02:31:26;;;;;;;;;88.33;63.67;;;;;3.28;71.10;102983.00;5006010;28;45961;-58
2022/01/25 02:33:51;;;;;;;;;86.33;65.33;;;;;3.29;71.23;102987.34;5010779;28;45269;-58
2022/01/25 02:36:28;;;;;;;;;88.00;66.00;;;;;3.29;71.15;102988.22;5012033;28;45290;-57
2022/01/25 02:38:54;;;;;;;;;86.33;62.67;;;;;3.31;71.05;102990.81;5011326;28;45485;-57
2022/01/25 02:41:21;;;;;;;;;92.33;68.33;;;;;3.32;70.91;102992.59;5008942;28;46154;-58
2022/01/25 02:43:47;;;;;;;;;92.33;67.33;;;;;3.32;71.27;102993.47;5008637;28;45444;-58
2022/01/25 02:48:55;;;;;;;;;87.00;65.67;;;;;3.33;71.35;102981.31;5008921;28;45578;-58
2022/01/25 02:51:34;;;;;;;;;85.67;64.00;;;;;3.32;71.31;102987.38;5009322;28;46229;-58
2022/01/25 02:54:00;;;;;;;;;84.67;63.33;;;;;3.28;71.16;102983.88;5009943;28;45447;-58
2022/01/25 02:56:28;;;;;;;;;89.00;68.00;;;;;3.27;71.74;102986.47;5012284;28;45276;-58
2022/01/25 02:58:55;;;;;;;;;93.00;69.00;;;;;3.22;71.59;102988.16;5010486;28;46553;-58
2022/01/25 03:01:22;;;;;;;;;88.67;65.67;;;;;3.20;71.98;102984.69;5012442;28;46244;-58
2022/01/25 03:03:49;;;;;;;;;92.67;66.33;;;;;3.21;72.04;102987.28;5012690;28;45481;-58
2022/01/25 03:06:19;;;;;;;;;94.33;69.33;;;;;3.23;71.90;102980.34;5012626;28;45298;-58
2022/01/25 03:08:46;;;;;;;;;93.33;67.33;;;;;3.27;71.87;102999.50;5010510;28;45428;-58
2022/01/25 03:11:11;;;;;;;;;96.00;69.33;;;;;3.26;72.11;102989.94;5011828;28;46035;-58
2022/01/25 03:13:49;;;;;;;;;98.00;72.00;;;;;3.26;72.60;102998.63;5010709;28;45415;-58
2022/01/25 03:16:23;;;;;;;;;89.67;70.00;;;;;3.26;71.94;102996.03;5012876;28;45225;-58
2022/01/25 03:18:50;;;;;;;;;94.67;67.00;;;;;3.27;72.11;102999.50;5011674;28;45261;-58
2022/01/25 03:21:22;;;;;;;;;90.00;68.67;;;;;3.27;71.84;102989.94;5011036;28;45316;-58
2022/01/25 03:23:51;;;;;;;;;91.67;67.00;;;;;3.28;71.57;102990.81;5011732;28;45415;-58
2022/01/25 03:26:18;;;;;;;;;87.33;66.33;;;;;3.29;71.83;102985.63;5013938;28;45334;-58
2022/01/25 03:28:44;;;;;;;;;93.67;68.00;;;;;3.29;72.06;102977.78;5013317;28;45491;-58
2022/01/25 03:31:10;;;;;;;;;86.33;65.67;;;;;3.32;72.03;102974.38;5009529;28;45438;-58
2022/01/25 03:33:37;;;;;;;;;92.33;67.67;;;;;3.31;72.13;102970.84;5013891;28;45333;-58
2022/01/25 03:36:04;;;;;;;;;93.67;68.67;;;;;3.32;71.73;102959.59;5012880;28;45243;-58
2022/01/25 03:38:29;;;;;;;;;85.00;63.00;;;;;3.32;72.00;102958.75;5013026;28;45505;-58
2022/01/25 03:40:55;;;;;;;;;80.00;60.00;;;;;3.32;71.69;102958.75;5012121;28;45502;-58
2022/01/25 03:43:21;;;;;;;;;77.33;56.67;;;;;3.31;71.38;102959.56;5012157;28;45214;-58
2022/01/25 03:46:00;;;;;;;;;71.33;51.00;;;;;3.27;71.19;102961.28;5010336;28;45521;-58
2022/01/25 03:50:51;;;;;;;;;57.67;44.33;;;;;3.24;71.21;102963.00;5011301;28;45804;-58
2022/01/25 03:53:19;;;;;;;;;55.33;45.33;;;;;3.21;70.81;102947.34;5012723;28;45230;-58
2022/01/25 03:55:49;;;;;;;;;48.00;38.67;;;;;3.19;70.99;102957.78;5014689;28;45214;-58
2022/01/25 03:58:15;;;;;;;;;64.33;45.33;;;;;3.13;70.68;102952.50;5012963;28;45528;-58
2022/01/25 04:00:42;;;;;;;;;57.67;48.67;;;;;3.12;70.90;102962.91;5009583;28;45477;-58
2022/01/25 04:05:38;;;;;;;;;51.00;42.00;;;;;3.08;70.85;102968.13;5011787;28;45412;-58
2022/01/25 04:08:04;;;;;;;;;65.00;46.33;;;;;3.02;70.94;102964.59;5014117;28;45431;-58
2022/01/25 04:10:30;;;;;;;;;64.33;46.67;;;;;3.03;70.92;102967.19;5012715;28;45416;-58
2022/01/25 04:12:56;;;;;;;;;56.00;45.67;;;;;3.00;71.38;102976.69;5014422;28;45256;-58
2022/01/25 04:15:22;;;;;;;;;64.33;46.33;;;;;3.03;71.56;102974.13;5012625;28;45519;-58
2022/01/25 04:17:53;;;;;;;;;64.67;46.00;;;;;3.01;71.17;102971.53;5010443;28;45369;-58
2022/01/25 04:20:31;;;;;;;;;67.67;50.67;;;;;3.04;71.52;102976.75;5009592;28;45364;-58
2022/01/25 04:25:42;;;;;;;;;90.00;63.67;;;;;3.05;72.01;102973.28;5012053;28;45420;-58
2022/01/25 04:28:08;;;;;;;;;89.33;65.00;;;;;3.06;71.78;102979.38;5013271;28;45307;-58
2022/01/25 04:30:33;;;;;;;;;90.67;67.33;;;;;3.09;71.77;102979.41;5009599;28;46202;-58
2022/01/25 04:33:03;;;;;;;;;90.33;66.33;;;;;3.14;72.19;102980.28;5011907;28;45400;-59
2022/01/25 04:51:54;;;;;;;;;87.00;60.00;;;;;3.33;71.37;102999.53;5010786;28;45418;-58
2022/01/25 05:00:12;;;;;;;;;80.00;61.00;;;;;3.26;71.18;102996.03;5012451;28;45304;-58
2022/01/25 05:05:14;;;;;;;;;83.67;62.00;;;;;3.18;71.02;102989.00;5011777;28;45383;-58
2022/01/25 05:07:52;;;;;;;;;81.00;61.00;;;;;3.10;71.04;102993.28;5012769;28;45345;-58
2022/01/25 05:10:18;;;;;;;;;86.67;63.67;;;;;3.03;71.55;102997.56;5008508;28;46941;-58
2022/01/25 05:12:50;;;;;;;;;81.00;60.33;;;;;3.00;71.80;102993.22;5011099;28;46058;-58
2022/01/25 05:15:26;;;;;;;;;84.00;60.33;;;;;2.98;71.55;102992.31;5011170;28;45450;-58
2022/01/25 05:18:08;;;;;;;;;76.33;56.67;;;;;2.95;72.29;102997.50;5013669;28;46628;-58
2022/01/25 05:23:18;;;;;;;;;74.00;56.33;;;;;2.92;72.27;102994.00;5012205;28;45369;-58
2022/01/25 05:25:44;;;;;;;;;81.67;61.33;;;;;2.91;72.20;102990.53;5010206;28;45269;-58
2022/01/25 05:28:09;;;;;;;;;74.67;56.00;;;;;2.90;72.43;102998.31;5009490;28;45233;-58
2022/01/25 05:30:35;;;;;;;;;87.33;62.67;;;;;2.87;72.44;102993.97;5007511;28;45439;-58
2022/01/25 05:33:00;;;;;;;;;87.67;63.67;;;;;2.85;72.13;102993.09;5009840;28;45424;-58
2022/01/25 05:35:26;;;;;;;;;81.67;61.00;;;;;2.81;72.28;102993.91;5009234;28;45314;-58
2022/01/25 05:37:52;;;;;;;;;95.33;67.33;;;;;2.80;72.75;102998.25;5010324;28;45486;-58
2022/01/25 05:40:28;;;;;;;;;86.00;64.00;;;;;2.80;72.44;102998.25;5012555;28;45226;-58
2022/01/25 05:43:59;;;;;;;;;69.33;57.67;;;;;2.84;72.90;102998.25;5009317;28;46639;-58
2022/01/25 05:46:12;;;;;;;;;78.33;61.67;;;;;2.85;72.99;102994.81;5010797;28;45296;-58
2022/01/25 05:48:38;;;;;;;;;87.67;61.00;;;;;2.84;73.05;102999.13;5012963;28;45448;-58
2022/01/25 05:51:04;;;;;;;;;82.00;61.00;;;;;2.86;72.79;103000.03;5008899;28;45521;-58
2022/01/25 05:53:29;;;;;;;;;83.33;60.67;;;;;2.87;72.79;102995.69;5012029;28;46225;-58
2022/01/25 05:55:56;;;;;;;;;89.00;65.67;;;;;2.90;72.68;102999.19;5011210;28;45284;-58
2022/01/25 05:58:22;;;;;;;;;81.33;61.00;;;;;2.93;72.79;103004.44;5010683;28;45331;-58
2022/01/25 06:00:47;;;;;;;;;83.33;62.00;;;;;2.97;73.02;102997.50;5009357;28;45305;-58
2022/01/25 06:03:13;;;;;;;;;86.33;62.33;;;;;3.01;72.97;102999.31;5009017;28;45719;-58
2022/01/25 06:05:38;;;;;;;;;86.33;63.33;;;;;3.01;72.90;103000.16;5008593;28;45263;-58
2022/01/25 06:08:04;;;;;;;;;91.67;65.33;;;;;3.02;72.95;103001.03;5009451;28;45293;-58
2022/01/25 06:10:31;;;;;;;;;87.00;62.67;;;;;3.03;72.79;102997.56;5010243;28;45158;-58
2022/01/25 06:12:57;;;;;;;;;83.33;61.33;;;;;3.01;73.55;102992.34;5010864;28;46225;-58
2022/01/25 06:15:23;;;;;;;;;86.00;61.00;;;;;3.01;73.07;103000.16;5010850;28;45827;-58
2022/01/25 06:17:49;;;;;;;;;79.00;61.33;;;;;3.02;73.05;102999.31;5011685;28;45382;-58
2022/01/25 06:20:15;;;;;;;;;86.67;63.00;;;;;3.03;72.82;102998.44;5010467;28;45356;-58
2022/01/25 06:22:41;;;;;;;;;77.67;60.67;;;;;3.04;72.96;102997.59;5007063;28;45356;-58
2022/01/25 06:25:07;;;;;;;;;84.00;62.33;;;;;3.05;72.60;103004.53;5000410;28;45231;-58
2022/01/25 06:27:33;;;;;;;;;79.00;55.33;;;;;3.03;72.80;103003.66;5001683;28;45303;-58
2022/01/25 06:29:58;;;;;;;;;80.33;57.67;;;;;3.05;73.04;103003.66;5003811;28;45507;-58
2022/01/25 06:32:24;;;;;;;;;70.67;56.00;;;;;3.12;72.75;103007.19;5015861;28;45822;-58
2022/01/25 06:34:50;;;;;;;;;81.33;58.33;;;;;3.15;72.85;102999.38;5023283;28;45357;-58
2022/01/25 06:37:15;;;;;;;;;76.00;54.67;;;;;3.15;72.93;102991.56;5023992;28;45245;-58
2022/01/25 06:39:42;;;;;;;;;79.33;62.33;;;;;3.15;72.66;102997.66;5018375;28;45213;-59
2022/01/25 06:42:08;;;;;;;;;85.67;60.67;;;;;3.13;72.68;102990.69;5008726;28;45321;-59
2022/01/25 06:44:36;;;;;;;;;90.00;63.67;;;;;3.11;72.92;102995.91;5007697;28;45463;-59
2022/01/25 06:47:03;;;;;;;;;87.33;62.67;;;;;3.14;73.03;103000.25;5011807;28;45235;-59
2022/01/25 06:49:29;;;;;;;;;82.00;61.33;;;;;3.16;73.02;102999.44;5014876;28;45647;-59
2022/01/25 06:51:55;;;;;;;;;87.67;62.00;;;;;3.19;72.71;102991.63;5018768;28;45455;-58
2022/01/25 06:54:20;;;;;;;;;87.67;62.33;;;;;3.22;73.01;102993.38;5008117;28;45284;-60
2022/01/25 06:56:46;;;;;;;;;84.33;59.33;;;;;3.21;72.65;103002.03;5007209;28;45293;-58
2022/01/25 06:59:11;;;;;;;;;84.33;63.00;;;;;3.18;72.75;102994.22;5012025;28;45503;-59
2022/01/25 07:01:37;;;;;;;;;78.33;60.33;;;;;3.18;72.84;102997.69;5016169;28;46163;-58
2022/01/25 07:04:03;;;;;;;;;88.67;61.00;;;;;3.18;72.70;102992.50;5013475;28;45467;-59
2022/01/25 07:06:29;;;;;;;;;81.33;59.67;;;;;3.18;72.94;103002.91;5007336;28;45295;-59
2022/01/25 07:08:54;;;;;;;;;80.67;60.33;;;;;3.20;72.88;103002.91;5013663;28;45490;-59
2022/01/25 07:11:20;;;;;;;;;79.67;60.67;;;;;3.23;72.77;103005.53;5009599;28;45491;-59
2022/01/25 07:13:47;;;;;;;;;81.33;62.33;;;;;3.23;72.99;103000.31;5009461;28;45448;-59
2022/01/25 07:16:13;;;;;;;;;89.33;63.00;;;;;3.21;72.86;102997.72;5011432;28;45339;-59
2022/01/25 07:18:38;;;;;;;;;80.33;60.33;;;;;3.22;72.75;103003.78;5016566;28;45409;-59
2022/01/25 07:21:04;;;;;;;;;86.33;61.67;;;;;3.23;72.90;103002.91;5022210;28;45376;-59
2022/01/25 07:23:29;;;;;;;;;76.33;61.00;;;;;3.23;72.89;103008.13;5020998;28;45443;-59
2022/01/25 07:25:55;;;;;;;;;81.67;58.33;;;;;3.26;73.33;103011.66;5014054;28;45328;-59
2022/01/25 07:28:21;;;;;;;;;88.00;61.00;;;;;3.30;73.07;103009.94;5005905;28;45467;-59
2022/01/25 07:30:46;;;;;;;;;81.67;59.67;;;;;3.32;72.96;103010.84;5002549;28;45632;-59
2022/01/25 07:33:12;;;;;;;;;84.67;61.33;;;;;3.37;72.56;103016.94;5021053;28;45305;-59
2022/01/25 07:35:38;;;;;;;;;79.67;56.67;;;;;3.39;72.63;103025.63;5022670;28;45347;-59
2022/01/25 07:38:04;;;;;;;;;87.00;61.33;;;;;3.39;72.70;103025.63;5022460;28;45304;-59
2022/01/25 07:40:30;;;;;;;;;76.67;58.67;;;;;3.40;72.64;103026.50;5009226;28;45888;-59
2022/01/25 07:42:56;;;;;;;;;91.33;63.00;;;;;3.43;72.74;103019.59;5008759;28;45369;-59
2022/01/25 07:45:22;;;;;;;;;93.67;66.00;;;;;3.42;72.46;103025.66;5002737;28;45295;-59
2022/01/25 07:47:48;;;;;;;;;85.00;58.67;;;;;3.38;72.29;103023.88;5002438;28;45554;-59
2022/01/25 07:50:14;;;;;;;;;80.33;59.33;;;;;3.34;72.72;103036.03;5002801;28;45405;-59
2022/01/25 07:52:40;;;;;;;;;75.00;57.00;;;;;3.34;72.89;103036.03;5003385;28;45330;-58
2022/01/25 07:55:07;;;;;;;;;72.00;55.33;;;;;3.39;72.47;103030.81;5004938;28;45313;-58
2022/01/25 07:57:32;;;;;;;;;83.67;61.00;;;;;3.41;72.44;103039.53;5002583;28;45400;-59
2022/01/25 07:59:58;;;;;;;;;90.00;62.00;;;;;3.42;72.38;103037.81;5009155;28;45352;-59
2022/01/25 08:02:24;;;;;;;;;74.33;57.33;;;;;3.40;72.60;103037.81;5002192;28;45442;-59
2022/01/25 08:04:50;;;;;;;;;93.33;62.00;;;;;3.40;72.49;103034.31;5002312;28;45365;-57
2022/01/25 08:07:17;;;;;;;;;87.00;61.00;;;;;3.40;72.87;103036.91;5002294;28;45487;-59
2022/01/25 08:09:43;;;;;;;;;80.00;56.33;;;;;3.41;73.25;103041.28;5002241;28;45391;-59
2022/01/25 08:12:11;;;;;;;;;78.00;57.67;;;;;3.45;72.37;103040.44;5002185;28;45162;-59
2022/01/25 08:14:38;;;;;;;;;79.00;60.67;;;;;3.48;72.41;103045.69;5002371;28;45189;-59
2022/01/25 08:17:04;;;;;;;;;81.00;59.67;;;;;3.51;72.37;103043.09;5009308;28;45507;-57
2022/01/25 08:19:29;;;;;;;;;83.67;59.33;;;;;3.53;72.94;103050.03;5021711;28;46277;-57
2022/01/25 08:21:55;;;;;;;;;80.33;54.67;;;;;3.57;72.48;103053.56;5022246;28;45313;-59
2022/01/25 08:24:21;;;;;;;;;80.67;57.00;;;;;3.57;72.21;103057.03;5022224;28;45518;-59
2022/01/25 08:26:48;;;;;;;;;87.33;57.00;;;;;3.59;72.05;103057.03;5022278;28;45170;-59
2022/01/25 08:29:14;;;;;;;;;84.00;59.33;;;;;3.58;72.41;103052.69;5021808;28;46062;-59
2022/01/25 08:31:39;;;;;;;;;89.00;61.67;;;;;3.60;72.71;103057.03;5005448;28;45291;-57
2022/01/25 08:34:11;;;;;;;;;75.33;58.00;;;;;3.61;72.16;103060.53;5021781;28;45502;-59
2022/01/25 08:36:37;;;;;;;;;86.00;60.00;;;;;3.61;72.23;103053.56;5022006;28;45415;-57
2022/01/25 08:39:04;;;;;;;;;71.33;54.67;;;;;3.64;72.13;103061.44;5016428;28;46926;-57
2022/01/25 08:41:30;;;;;;;;;77.67;58.00;;;;;3.65;72.76;103054.47;5007838;28;45377;-57
2022/01/25 08:43:55;;;;;;;;;87.33;60.00;;;;;3.69;72.38;103056.22;5002103;28;45241;-57
2022/01/25 08:46:21;;;;;;;;;73.67;59.00;;;;;3.73;72.03;103050.19;5001801;28;45253;-57
2022/01/25 08:48:46;;;;;;;;;85.67;59.00;;;;;3.75;72.27;103055.41;5002007;28;46206;-57
2022/01/25 08:51:13;;;;;;;;;82.33;60.00;;;;;3.73;71.95;103050.19;4999788;28;45377;-57
2022/01/25 08:53:39;;;;;;;;;77.33;58.00;;;;;3.74;72.37;103049.31;5001957;28;45333;-57
2022/01/25 08:56:05;;;;;;;;;80.67;55.00;;;;;3.75;72.17;103051.06;5001782;28;45452;-57
2022/01/25 08:58:31;;;;;;;;;67.67;50.67;;;;;3.75;72.05;103052.81;5001667;28;45566;-57
2022/01/25 09:00:56;;;;;;;;;84.33;60.00;;;;;3.75;72.04;103056.28;5001306;28;45185;-57
2022/01/25 09:03:22;;;;;;;;;82.67;58.00;;;;;3.75;71.92;103063.22;5012075;28;45241;-57
2022/01/25 09:05:48;;;;;;;;;80.67;59.67;;;;;3.71;71.83;103064.06;5001560;28;45428;-57
2022/01/25 09:08:21;;;;;;;;;87.00;58.33;;;;;3.74;71.98;103054.53;5008404;28;45247;-57
2022/01/25 09:10:52;;;;;;;;;82.00;59.00;;;;;3.76;72.29;103063.22;5021137;28;45190;-58
2022/01/25 09:13:21;;;;;;;;;79.00;58.33;;;;;3.76;71.66;103055.41;5021095;28;45338;-58
2022/01/25 09:15:46;;;;;;;;;88.00;61.67;;;;;3.79;72.37;103054.53;5006656;28;45434;-57
2022/01/25 09:18:12;;;;;;;;;85.33;60.00;;;;;3.81;72.19;103056.31;5021278;28;45268;-57
2022/01/25 09:20:39;;;;;;;;;74.33;55.33;;;;;3.83;71.96;103057.19;5020647;28;45422;-58
2022/01/25 09:23:05;;;;;;;;;81.00;58.67;;;;;3.81;71.90;103068.47;5021576;28;45233;-58
2022/01/25 09:25:31;;;;;;;;;84.00;58.00;;;;;3.77;72.09;103078.00;5021157;28;45249;-58
2022/01/25 09:27:57;;;;;;;;;85.00;60.67;;;;;3.75;71.89;103071.91;5021189;28;45995;-58
2022/01/25 09:30:23;;;;;;;;;77.00;56.67;;;;;3.76;71.92;103075.38;5015106;28;45482;-58
2022/01/25 09:32:48;;;;;;;;;89.33;61.33;;;;;3.78;71.89;103073.66;5010577;28;45503;-58
2022/01/25 09:35:14;;;;;;;;;84.00;59.00;;;;;3.81;71.79;103076.31;5021094;28;45308;-58
2022/01/25 09:37:40;;;;;;;;;79.67;59.00;;;;;3.79;72.28;103078.00;5020876;28;45952;-58
2022/01/25 09:40:07;;;;;;;;;78.00;56.00;;;;;3.80;72.35;103083.25;5018241;28;45328;-58
2022/01/25 09:42:32;;;;;;;;;92.33;60.67;;;;;3.81;72.17;103085.00;5001271;28;45293;-58
2022/01/25 09:44:59;;;;;;;;;89.00;63.00;;;;;3.84;71.65;103084.13;5001322;28;45309;-58
2022/01/25 09:47:24;;;;;;;;;83.33;43.67;;;;;3.85;71.34;103078.91;5000940;28;46365;-58
2022/01/25 09:49:50;;;;;;;;;85.67;60.00;;;;;3.86;71.65;103088.47;5000909;28;45386;-58
2022/01/25 09:52:18;;;;;;;;;81.33;61.00;;;;;3.87;71.71;103085.03;5001174;28;45230;-58
2022/01/25 09:54:55;;;;;;;;;84.00;57.67;;;;;3.84;71.60;103090.22;5001244;28;45232;-58
2022/01/25 09:57:21;;;;;;;;;87.33;62.33;;;;;3.83;71.99;103088.47;5001120;28;45394;-58
2022/01/25 09:59:47;;;;;;;;;76.00;56.33;;;;;3.84;72.29;103090.22;5000739;28;45320;-58
2022/01/25 10:02:49;;;;;;;;;85.00;59.67;;;;;3.87;72.26;103089.34;5007595;28;45337;-58
2022/01/25 10:05:15;;;;;;;;;88.00;61.67;;;;;3.84;71.90;103092.81;5000703;28;45429;-58
2022/01/25 10:07:41;;;;;;;;;86.67;60.00;;;;;3.85;71.54;103089.34;5000546;28;46115;-58
2022/01/25 10:10:07;;;;;;;;;82.33;59.33;;;;;3.87;71.53;103079.81;5000596;28;45325;-58
2022/01/25 10:12:32;;;;;;;;;80.67;57.33;;;;;3.93;71.42;103086.78;5000789;28;45405;-58
2022/01/25 10:15:01;;;;;;;;;85.67;59.00;;;;;3.98;71.59;103086.84;5000897;28;45565;-58
2022/01/25 10:17:36;;;;;;;;;87.67;60.33;;;;;4.00;71.78;103085.97;5000608;28;46067;-58
2022/01/25 10:20:03;;;;;;;;;72.67;55.67;;;;;4.06;71.66;103087.75;4999996;28;45485;-59
2022/01/25 10:22:41;;;;;;;;;80.00;54.33;;;;;4.09;71.07;103095.56;5000777;28;45323;-59
2022/01/25 10:25:07;;;;;;;;;76.00;57.67;;;;;4.13;71.23;103098.22;5000371;28;45304;-59
2022/01/25 10:28:03;;;;;;;;;84.00;60.00;;;;;4.12;71.14;103093.00;5000432;28;46030;-59
2022/01/25 10:30:32;;;;;;;;;85.33;58.67;;;;;4.15;71.29;103100.84;5000330;28;45431;-59
2022/01/25 10:33:01;;;;;;;;;85.33;60.00;;;;;4.17;70.75;103102.56;5011373;28;45529;-59
2022/01/25 10:35:29;;;;;;;;;72.00;55.33;;;;;4.17;70.53;103107.78;5020037;28;45503;-59
2022/01/25 10:37:55;;;;;;;;;63.67;51.00;;;;;4.10;70.93;103111.22;5020367;28;45270;-59
2022/01/25 10:40:37;;;;;;;;;78.67;57.00;;;;;4.14;70.75;103102.56;5015548;28;45413;-59
2022/01/25 10:43:05;;;;;;;;;83.33;58.00;;;;;4.15;70.72;103101.69;5000537;28;45314;-59
2022/01/25 10:45:31;;;;;;;;;75.67;55.67;;;;;4.18;70.96;103106.91;5000633;28;45279;-59
2022/01/25 10:47:57;;;;;;;;;71.00;49.67;;;;;4.19;70.84;103105.22;5000188;28;46094;-59
2022/01/25 10:50:25;;;;;;;;;78.00;58.00;;;;;4.16;70.41;103108.66;5000279;28;45372;-58
2022/01/25 10:53:17;;;;;;;;;67.33;42.67;;;;;4.12;70.48;103098.22;5000372;28;45254;-58
2022/01/25 10:55:49;;;;;;;;;81.00;55.67;;;;;4.11;70.72;103094.75;5000460;28;45483;-58
2022/01/25 10:58:16;;;;;;;;;78.67;55.33;;;;;4.11;70.65;103102.56;4999004;28;46084;-58
2022/01/25 11:00:44;;;;;;;;;78.00;55.33;;;;;4.08;70.42;103099.91;5000234;28;45528;-58
2022/01/25 11:03:10;;;;;;;;;77.33;58.67;;;;;4.15;70.52;103101.69;5009517;28;45375;-58
2022/01/25 11:05:45;;;;;;;;;81.67;61.33;;;;;4.19;70.37;103090.44;5000001;28;45475;-58
2022/01/25 11:08:16;;;;;;;;;76.33;55.33;;;;;4.24;70.24;103095.66;5007395;28;46217;-59
2022/01/25 11:10:51;;;;;;;;;73.67;55.33;;;;;4.31;70.50;103091.34;5019703;28;45563;-58
2022/01/25 11:13:35;;;;;;;;;84.67;57.33;;;;;4.35;70.14;103090.50;5020401;28;45387;-59
2022/01/25 11:16:07;;;;;;;;;85.67;59.00;;;;;4.38;69.90;103086.16;5022824;28;45755;-59
2022/01/25 11:18:34;;;;;;;;;78.00;55.33;;;;;4.40;69.75;103094.84;5023351;28;45165;-58
2022/01/25 11:21:02;;;;;;;;;79.67;56.33;;;;;4.47;70.41;103098.38;5022835;28;45562;-58
2022/01/25 11:23:32;;;;;;;;;80.33;54.67;;;;;4.55;70.38;103099.25;5023246;28;45474;-58
2022/01/25 11:26:01;;;;;;;;;81.33;60.67;;;;;4.63;69.18;103099.28;5022891;28;45194;-58
2022/01/25 11:28:29;;;;;;;;;72.00;53.33;;;;;4.63;69.87;103097.56;5022936;28;46122;-58
2022/01/25 11:30:55;;;;;;;;;72.67;52.00;;;;;4.62;69.58;103092.34;5012307;28;45321;-58
2022/01/25 11:33:21;;;;;;;;;82.33;59.00;;;;;4.69;69.41;103083.66;5016785;28;45274;-58
2022/01/25 11:35:49;;;;;;;;;79.00;58.00;;;;;4.75;69.00;103091.50;5022931;28;45233;-58
2022/01/25 11:38:14;;;;;;;;;78.00;57.67;;;;;4.81;69.66;103091.50;5022681;28;45270;-58
2022/01/25 11:40:51;;;;;;;;;83.67;56.33;;;;;4.84;68.84;103090.66;5015395;28;45483;-58
2022/01/25 11:43:16;;;;;;;;;68.33;50.67;;;;;4.89;69.75;103095.00;5003082;28;45620;-58
2022/01/25 11:45:49;;;;;;;;;82.00;59.00;;;;;4.92;69.10;103096.78;5002883;28;45455;-58
2022/01/25 11:48:33;;;;;;;;;80.33;57.67;;;;;4.97;68.73;103087.19;5002555;28;45388;-57
2022/01/25 11:51:02;;;;;;;;;75.33;52.33;;;;;5.02;69.21;103090.69;5002592;28;45225;-58
2022/01/25 11:53:29;;;;;;;;;78.33;58.00;;;;;5.08;69.15;103088.09;5002604;28;45553;-58
2022/01/25 11:55:56;;;;;;;;;77.00;54.67;;;;;5.12;68.42;103094.19;5002600;28;45541;-58
2022/01/25 11:58:21;;;;;;;;;84.67;58.67;;;;;5.09;68.24;103084.59;5002621;28;46063;-58
2022/01/25 12:00:50;;;;;;;;;70.33;52.00;;;;;5.04;68.07;103081.09;5002327;28;45396;-58
2022/01/25 12:03:28;;;;;;;;;79.00;57.00;;;;;5.01;68.79;103073.28;5012383;28;45232;-58
2022/01/25 12:06:04;;;;;;;;;75.67;55.00;;;;;5.06;67.84;103082.00;5002399;28;45317;-58
2022/01/25 12:08:39;;;;;;;;;72.67;55.67;;;;;5.06;68.68;103081.13;5002413;28;45520;-58
2022/01/25 12:11:45;;;;;;;;;78.00;56.00;;;;;5.08;67.98;103075.03;5002362;28;45300;-58
2022/01/25 12:14:22;;;;;;;;;70.67;55.67;;;;;5.10;69.04;103075.88;5002459;28;45495;-58
2022/01/25 12:16:55;;;;;;;;;76.33;56.33;;;;;5.19;67.71;103070.66;5002451;28;45775;-58
2022/01/25 12:19:48;;;;;;;;;80.00;56.33;;;;;5.20;68.66;103068.94;5001491;28;46160;-59
2022/01/25 12:22:27;;;;;;;;;80.00;58.00;;;;;5.21;68.44;103066.34;5001672;28;45451;-59
2022/01/25 12:25:09;;;;;;;;;70.00;47.00;;;;;5.23;68.51;103061.09;5001567;28;45211;-58
2022/01/25 12:27:49;;;;;;;;;79.33;54.33;;;;;5.21;67.87;103063.72;5002353;28;45551;-58
2022/01/25 12:30:40;;;;;;;;;76.00;53.00;;;;;5.19;67.48;103049.78;5010268;28;47922;-58
2022/01/25 12:33:22;;;;;;;;;73.67;53.67;;;;;5.16;68.34;103055.00;5013734;28;45280;-58
2022/01/25 12:36:01;;;;;;;;;77.00;56.67;;;;;5.13;67.78;103052.38;5022010;28;45288;-58
2022/01/25 12:38:29;;;;;;;;;74.33;56.00;;;;;5.08;67.79;103048.91;5021823;28;45361;-58
2022/01/25 12:41:06;;;;;;;;;80.33;56.33;;;;;5.04;67.57;103048.00;5012063;28;45454;-59
2022/01/25 12:43:43;;;;;;;;;77.00;59.33;;;;;5.01;68.14;103052.38;5001602;28;45175;-58
2022/01/25 12:46:21;;;;;;;;;80.00;56.33;;;;;4.98;68.14;103048.03;5001871;28;45388;-58
2022/01/25 12:48:55;;;;;;;;;71.67;53.67;;;;;5.01;67.43;103050.63;5009587;28;45258;-58
2022/01/25 12:51:26;;;;;;;;;75.67;55.33;;;;;5.07;67.59;103043.69;5006849;28;47811;-58
2022/01/25 12:53:55;;;;;;;;;67.67;53.33;;;;;5.10;68.15;103038.44;5021639;28;45384;-58
2022/01/25 12:56:21;;;;;;;;;79.00;57.67;;;;;5.09;68.28;103029.75;5021724;28;45392;-59
2022/01/25 12:58:51;;;;;;;;;73.00;51.00;;;;;5.14;68.65;103034.97;5021822;28;45506;-59
2022/01/25 13:01:21;;;;;;;;;77.00;53.33;;;;;5.14;67.91;103030.63;5021153;28;45189;-59
2022/01/25 13:03:48;;;;;;;;;77.33;56.67;;;;;5.17;67.17;103040.19;5001931;28;45321;-58
2022/01/25 13:06:20;;;;;;;;;69.67;53.67;;;;;5.16;67.89;103026.25;5014609;28;45225;-58
2022/01/25 13:09:04;;;;;;;;;79.00;56.67;;;;;5.17;67.73;103034.97;5002031;28;45333;-58